sensor_id;sensor_type;location;lat;lon;timestamp;P1;durP1;ratioP1;P2;durP2;ratioP2
27161;SDS011;54464;50.558;9.704;2022-10-16T00:01:13;3.70;;;2.93;;
27161;SDS011;54464;50.558;9.704;2022-10-16T00:03:40;3.03;;;2.73;;
27161;SDS011;54464;50.558;9.704;2022-10-16T00:06:07;3.23;;;2.97;;
27161;SDS011;54464;50.558;9.704;2022-10-16T00:08:34;3.17;;;2.90;;
27161;SDS011;54464;50.558;9.704;2022-10-16T00:11:01;2.93;;;2.73;;
27161;SDS011;54464;50.558;9.704;2022-10-16T00:13:30;3.00;;;2.80;;
27161;SDS011;54464;50.558;9.704;2022-10-16T00:18:46;5.57;;;2.43;;
27161;SDS011;54464;50.558;9.704;2022-10-16T00:21:16;2.80;;;2.40;;
27161;SDS011;54464;50.558;9.704;2022-10-16T00:23:49;4.53;;;3.17;;
27161;SDS011;54464;50.558;9.704;2022-10-16T00:26:24;3.33;;;3.13;;
27161;SDS011;54464;50.558;9.704;2022-10-16T00:28:50;3.70;;;2.60;;
27161;SDS011;54464;50.558;9.704;2022-10-16T00:31:20;2.63;;;2.43;;
27161;SDS011;54464;50.558;9.704;2022-10-16T00:33:46;3.13;;;2.83;;
27161;SDS011;54464;50.558;9.704;2022-10-16T00:36:13;3.60;;;2.90;;
27161;SDS011;54464;50.558;9.704;2022-10-16T00:38:41;3.77;;;2.83;;
27161;SDS011;54464;50.558;9.704;2022-10-16T00:41:09;4.20;;;3.37;;
27161;SDS011;54464;50.558;9.704;2022-10-16T00:49:05;2.80;;;2.60;;
27161;SDS011;54464;50.558;9.704;2022-10-16T00:51:37;2.90;;;2.70;;
27161;SDS011;54464;50.558;9.704;2022-10-16T00:54:12;3.43;;;2.80;;
27161;SDS011;54464;50.558;9.704;2022-10-16T00:56:40;2.67;;;2.20;;
27161;SDS011;54464;50.558;9.704;2022-10-16T00:59:10;2.30;;;2.10;;
27161;SDS011;54464;50.558;9.704;2022-10-16T01:01:44;2.63;;;2.10;;
27161;SDS011;54464;50.558;9.704;2022-10-16T01:04:10;2.90;;;2.30;;
27161;SDS011;54464;50.558;9.704;2022-10-16T01:12:09;2.77;;;2.57;;
27161;SDS011;54464;50.558;9.704;2022-10-16T01:17:45;3.27;;;2.70;;
27161;SDS011;54464;50.558;9.704;2022-10-16T01:23:01;3.10;;;2.80;;
27161;SDS011;54464;50.558;9.704;2022-10-16T01:29:20;3.27;;;2.67;;
27161;SDS011;54464;50.558;9.704;2022-10-16T01:31:26;2.70;;;2.50;;
27161;SDS011;54464;50.558;9.704;2022-10-16T01:34:00;2.80;;;2.60;;
27161;SDS011;54464;50.558;9.704;2022-10-16T01:36:31;2.90;;;2.40;;
27161;SDS011;54464;50.558;9.704;2022-10-16T01:39:02;2.23;;;2.13;;
27161;SDS011;54464;50.558;9.704;2022-10-16T01:41:34;2.50;;;2.30;;
27161;SDS011;54464;50.558;9.704;2022-10-16T01:44:10;2.53;;;2.10;;
27161;SDS011;54464;50.558;9.704;2022-10-16T01:46:43;2.00;;;1.90;;
27161;SDS011;54464;50.558;9.704;2022-10-16T01:49:10;4.67;;;2.27;;
27161;SDS011;54464;50.558;9.704;2022-10-16T01:51:38;2.13;;;1.93;;
27161;SDS011;54464;50.558;9.704;2022-10-16T01:54:04;2.30;;;2.10;;
27161;SDS011;54464;50.558;9.704;2022-10-16T01:56:33;2.87;;;2.00;;
27161;SDS011;54464;50.558;9.704;2022-10-16T01:59:07;3.43;;;2.20;;
27161;SDS011;54464;50.558;9.704;2022-10-16T02:01:40;3.30;;;3.00;;
27161;SDS011;54464;50.558;9.704;2022-10-16T02:04:16;4.13;;;3.20;;
27161;SDS011;54464;50.558;9.704;2022-10-16T02:06:47;4.10;;;3.20;;
27161;SDS011;54464;50.558;9.704;2022-10-16T02:09:13;3.73;;;3.40;;
27161;SDS011;54464;50.558;9.704;2022-10-16T02:11:41;3.70;;;3.40;;
27161;SDS011;54464;50.558;9.704;2022-10-16T02:14:08;4.00;;;3.27;;
27161;SDS011;54464;50.558;9.704;2022-10-16T02:16:35;4.20;;;3.80;;
27161;SDS011;54464;50.558;9.704;2022-10-16T02:19:05;5.47;;;4.70;;
27161;SDS011;54464;50.558;9.704;2022-10-16T02:21:49;4.60;;;4.13;;
27161;SDS011;54464;50.558;9.704;2022-10-16T02:24:32;3.10;;;2.47;;
27161;SDS011;54464;50.558;9.704;2022-10-16T02:27:20;2.90;;;2.30;;
27161;SDS011;54464;50.558;9.704;2022-10-16T02:30:09;4.20;;;2.50;;
27161;SDS011;54464;50.558;9.704;2022-10-16T02:32:39;2.60;;;2.40;;
27161;SDS011;54464;50.558;9.704;2022-10-16T02:35:08;2.37;;;2.17;;
27161;SDS011;54464;50.558;9.704;2022-10-16T02:37:35;3.30;;;2.20;;
27161;SDS011;54464;50.558;9.704;2022-10-16T02:40:03;2.47;;;2.03;;
27161;SDS011;54464;50.558;9.704;2022-10-16T02:42:34;3.20;;;2.40;;
27161;SDS011;54464;50.558;9.704;2022-10-16T02:45:01;3.43;;;3.13;;
27161;SDS011;54464;50.558;9.704;2022-10-16T02:47:28;3.47;;;3.17;;
27161;SDS011;54464;50.558;9.704;2022-10-16T02:49:54;3.97;;;3.30;;
27161;SDS011;54464;50.558;9.704;2022-10-16T02:52:20;3.30;;;3.10;;
27161;SDS011;54464;50.558;9.704;2022-10-16T02:54:45;4.07;;;3.60;;
27161;SDS011;54464;50.558;9.704;2022-10-16T02:57:11;4.27;;;3.83;;
27161;SDS011;54464;50.558;9.704;2022-10-16T02:59:37;3.80;;;3.27;;
27161;SDS011;54464;50.558;9.704;2022-10-16T03:02:02;4.43;;;3.50;;
27161;SDS011;54464;50.558;9.704;2022-10-16T03:04:28;4.97;;;3.50;;
27161;SDS011;54464;50.558;9.704;2022-10-16T03:06:57;3.63;;;3.37;;
27161;SDS011;54464;50.558;9.704;2022-10-16T03:09:25;4.60;;;4.07;;
27161;SDS011;54464;50.558;9.704;2022-10-16T03:11:51;4.00;;;3.43;;
27161;SDS011;54464;50.558;9.704;2022-10-16T03:14:17;3.90;;;3.50;;
27161;SDS011;54464;50.558;9.704;2022-10-16T03:16:42;4.27;;;3.53;;
27161;SDS011;54464;50.558;9.704;2022-10-16T03:19:08;5.03;;;3.83;;
27161;SDS011;54464;50.558;9.704;2022-10-16T03:21:34;3.80;;;3.50;;
27161;SDS011;54464;50.558;9.704;2022-10-16T03:23:59;3.70;;;3.40;;
27161;SDS011;54464;50.558;9.704;2022-10-16T03:26:25;3.80;;;3.50;;
27161;SDS011;54464;50.558;9.704;2022-10-16T03:28:54;4.00;;;3.70;;
27161;SDS011;54464;50.558;9.704;2022-10-16T03:31:25;4.20;;;3.70;;
27161;SDS011;54464;50.558;9.704;2022-10-16T03:33:51;3.53;;;3.33;;
27161;SDS011;54464;50.558;9.704;2022-10-16T03:36:16;4.03;;;3.73;;
27161;SDS011;54464;50.558;9.704;2022-10-16T03:38:42;3.80;;;3.50;;
27161;SDS011;54464;50.558;9.704;2022-10-16T03:41:08;4.07;;;3.70;;
27161;SDS011;54464;50.558;9.704;2022-10-16T03:43:33;4.33;;;3.93;;
27161;SDS011;54464;50.558;9.704;2022-10-16T03:46:05;3.83;;;3.53;;
27161;SDS011;54464;50.558;9.704;2022-10-16T03:48:31;3.40;;;3.10;;
27161;SDS011;54464;50.558;9.704;2022-10-16T03:50:57;3.30;;;3.00;;
27161;SDS011;54464;50.558;9.704;2022-10-16T03:53:23;2.97;;;2.77;;
27161;SDS011;54464;50.558;9.704;2022-10-16T03:56:01;3.70;;;3.40;;
27161;SDS011;54464;50.558;9.704;2022-10-16T03:58:27;3.10;;;2.80;;
27161;SDS011;54464;50.558;9.704;2022-10-16T04:00:55;2.57;;;2.37;;
27161;SDS011;54464;50.558;9.704;2022-10-16T04:03:21;3.50;;;2.70;;
27161;SDS011;54464;50.558;9.704;2022-10-16T04:05:48;5.10;;;2.53;;
27161;SDS011;54464;50.558;9.704;2022-10-16T04:08:16;3.10;;;2.80;;
27161;SDS011;54464;50.558;9.704;2022-10-16T04:10:43;2.60;;;2.40;;
27161;SDS011;54464;50.558;9.704;2022-10-16T04:13:09;3.10;;;2.80;;
27161;SDS011;54464;50.558;9.704;2022-10-16T04:15:34;2.80;;;2.60;;
27161;SDS011;54464;50.558;9.704;2022-10-16T04:18:04;3.23;;;2.93;;
27161;SDS011;54464;50.558;9.704;2022-10-16T04:20:30;3.10;;;2.50;;
27161;SDS011;54464;50.558;9.704;2022-10-16T04:22:56;2.90;;;2.70;;
27161;SDS011;54464;50.558;9.704;2022-10-16T04:25:25;3.20;;;2.50;;
27161;SDS011;54464;50.558;9.704;2022-10-16T04:27:52;2.90;;;2.70;;
27161;SDS011;54464;50.558;9.704;2022-10-16T04:30:18;4.47;;;3.10;;
27161;SDS011;54464;50.558;9.704;2022-10-16T04:32:47;2.90;;;2.70;;
27161;SDS011;54464;50.558;9.704;2022-10-16T04:35:15;3.00;;;2.73;;
27161;SDS011;54464;50.558;9.704;2022-10-16T04:37:41;3.37;;;2.80;;
27161;SDS011;54464;50.558;9.704;2022-10-16T04:40:06;3.47;;;3.17;;
27161;SDS011;54464;50.558;9.704;2022-10-16T04:42:32;4.43;;;2.90;;
27161;SDS011;54464;50.558;9.704;2022-10-16T04:44:58;4.00;;;3.00;;
27161;SDS011;54464;50.558;9.704;2022-10-16T04:47:24;3.20;;;3.00;;
27161;SDS011;54464;50.558;9.704;2022-10-16T04:49:49;3.23;;;2.97;;
27161;SDS011;54464;50.558;9.704;2022-10-16T04:52:15;3.40;;;3.20;;
27161;SDS011;54464;50.558;9.704;2022-10-16T04:54:41;3.97;;;3.60;;
27161;SDS011;54464;50.558;9.704;2022-10-16T04:57:06;4.17;;;3.67;;
27161;SDS011;54464;50.558;9.704;2022-10-16T04:59:32;4.57;;;3.50;;
27161;SDS011;54464;50.558;9.704;2022-10-16T05:01:58;2.83;;;2.63;;
27161;SDS011;54464;50.558;9.704;2022-10-16T05:04:26;3.27;;;2.93;;
27161;SDS011;54464;50.558;9.704;2022-10-16T05:06:54;3.57;;;3.23;;
27161;SDS011;54464;50.558;9.704;2022-10-16T05:09:20;3.60;;;3.30;;
27161;SDS011;54464;50.558;9.704;2022-10-16T05:11:46;3.20;;;3.00;;
27161;SDS011;54464;50.558;9.704;2022-10-16T05:14:11;3.00;;;2.67;;
27161;SDS011;54464;50.558;9.704;2022-10-16T05:16:37;2.90;;;2.70;;
27161;SDS011;54464;50.558;9.704;2022-10-16T05:19:03;2.93;;;2.73;;
27161;SDS011;54464;50.558;9.704;2022-10-16T05:21:28;3.27;;;2.53;;
27161;SDS011;54464;50.558;9.704;2022-10-16T05:23:57;3.27;;;2.50;;
27161;SDS011;54464;50.558;9.704;2022-10-16T05:26:23;2.50;;;2.30;;
27161;SDS011;54464;50.558;9.704;2022-10-16T05:28:49;3.00;;;2.80;;
27161;SDS011;54464;50.558;9.704;2022-10-16T05:31:15;2.70;;;2.47;;
27161;SDS011;54464;50.558;9.704;2022-10-16T05:33:40;2.40;;;2.30;;
27161;SDS011;54464;50.558;9.704;2022-10-16T05:36:09;2.77;;;2.20;;
27161;SDS011;54464;50.558;9.704;2022-10-16T05:38:45;2.47;;;2.13;;
27161;SDS011;54464;50.558;9.704;2022-10-16T05:41:15;2.87;;;2.07;;
27161;SDS011;54464;50.558;9.704;2022-10-16T05:43:46;3.03;;;2.47;;
27161;SDS011;54464;50.558;9.704;2022-10-16T05:46:12;2.73;;;2.50;;
27161;SDS011;54464;50.558;9.704;2022-10-16T05:48:38;3.00;;;2.70;;
27161;SDS011;54464;50.558;9.704;2022-10-16T05:51:04;3.43;;;3.00;;
27161;SDS011;54464;50.558;9.704;2022-10-16T05:53:37;4.10;;;2.70;;
27161;SDS011;54464;50.558;9.704;2022-10-16T05:56:03;3.00;;;2.70;;
27161;SDS011;54464;50.558;9.704;2022-10-16T05:58:35;2.83;;;2.63;;
27161;SDS011;54464;50.558;9.704;2022-10-16T06:01:03;3.10;;;2.80;;
27161;SDS011;54464;50.558;9.704;2022-10-16T06:03:31;4.10;;;3.47;;
27161;SDS011;54464;50.558;9.704;2022-10-16T06:06:01;4.83;;;3.07;;
27161;SDS011;54464;50.558;9.704;2022-10-16T06:08:32;2.77;;;2.57;;
27161;SDS011;54464;50.558;9.704;2022-10-16T06:11:05;3.20;;;2.90;;
27161;SDS011;54464;50.558;9.704;2022-10-16T06:13:32;5.13;;;3.10;;
27161;SDS011;54464;50.558;9.704;2022-10-16T06:15:58;3.37;;;3.10;;
27161;SDS011;54464;50.558;9.704;2022-10-16T06:18:28;4.57;;;3.23;;
27161;SDS011;54464;50.558;9.704;2022-10-16T06:20:57;3.60;;;3.30;;
27161;SDS011;54464;50.558;9.704;2022-10-16T06:23:24;3.13;;;2.87;;
27161;SDS011;54464;50.558;9.704;2022-10-16T06:25:50;3.70;;;3.40;;
27161;SDS011;54464;50.558;9.704;2022-10-16T06:28:31;3.40;;;3.10;;
27161;SDS011;54464;50.558;9.704;2022-10-16T06:31:01;3.87;;;3.57;;
27161;SDS011;54464;50.558;9.704;2022-10-16T06:33:27;3.40;;;3.10;;
27161;SDS011;54464;50.558;9.704;2022-10-16T06:38:28;4.57;;;4.20;;
27161;SDS011;54464;50.558;9.704;2022-10-16T06:40:54;4.40;;;4.00;;
27161;SDS011;54464;50.558;9.704;2022-10-16T06:43:20;4.63;;;4.00;;
27161;SDS011;54464;50.558;9.704;2022-10-16T06:48:18;4.27;;;3.87;;
27161;SDS011;54464;50.558;9.704;2022-10-16T06:50:44;4.40;;;3.97;;
27161;SDS011;54464;50.558;9.704;2022-10-16T06:53:27;5.63;;;4.83;;
27161;SDS011;54464;50.558;9.704;2022-10-16T06:55:57;7.30;;;6.27;;
27161;SDS011;54464;50.558;9.704;2022-10-16T06:58:22;7.73;;;6.13;;
27161;SDS011;54464;50.558;9.704;2022-10-16T07:00:49;6.97;;;5.70;;
27161;SDS011;54464;50.558;9.704;2022-10-16T07:03:20;10.47;;;6.70;;
27161;SDS011;54464;50.558;9.704;2022-10-16T07:05:46;9.50;;;5.43;;
27161;SDS011;54464;50.558;9.704;2022-10-16T07:08:12;7.63;;;5.23;;
27161;SDS011;54464;50.558;9.704;2022-10-16T07:10:37;3.60;;;3.30;;
27161;SDS011;54464;50.558;9.704;2022-10-16T07:13:03;3.50;;;2.77;;
27161;SDS011;54464;50.558;9.704;2022-10-16T07:15:29;3.17;;;2.87;;
27161;SDS011;54464;50.558;9.704;2022-10-16T07:17:54;3.20;;;3.00;;
27161;SDS011;54464;50.558;9.704;2022-10-16T07:20:20;3.30;;;2.90;;
27161;SDS011;54464;50.558;9.704;2022-10-16T07:22:46;4.87;;;3.20;;
27161;SDS011;54464;50.558;9.704;2022-10-16T07:25:12;3.10;;;2.73;;
27161;SDS011;54464;50.558;9.704;2022-10-16T07:27:46;4.93;;;3.70;;
27161;SDS011;54464;50.558;9.704;2022-10-16T07:30:12;4.00;;;3.70;;
27161;SDS011;54464;50.558;9.704;2022-10-16T07:32:37;4.77;;;3.70;;
27161;SDS011;54464;50.558;9.704;2022-10-16T07:35:03;3.90;;;3.60;;
27161;SDS011;54464;50.558;9.704;2022-10-16T07:37:29;4.73;;;3.63;;
27161;SDS011;54464;50.558;9.704;2022-10-16T07:39:55;3.83;;;3.47;;
27161;SDS011;54464;50.558;9.704;2022-10-16T07:42:20;4.13;;;3.73;;
27161;SDS011;54464;50.558;9.704;2022-10-16T07:44:46;4.40;;;4.00;;
27161;SDS011;54464;50.558;9.704;2022-10-16T07:47:12;5.67;;;3.70;;
27161;SDS011;54464;50.558;9.704;2022-10-16T07:49:37;3.40;;;3.10;;
27161;SDS011;54464;50.558;9.704;2022-10-16T07:52:03;3.80;;;3.43;;
27161;SDS011;54464;50.558;9.704;2022-10-16T07:54:29;3.53;;;3.07;;
27161;SDS011;54464;50.558;9.704;2022-10-16T07:56:54;2.90;;;2.70;;
27161;SDS011;54464;50.558;9.704;2022-10-16T07:59:20;3.80;;;3.10;;
27161;SDS011;54464;50.558;9.704;2022-10-16T08:01:45;4.10;;;3.30;;
27161;SDS011;54464;50.558;9.704;2022-10-16T08:04:11;3.97;;;3.50;;
27161;SDS011;54464;50.558;9.704;2022-10-16T08:06:37;3.80;;;3.50;;
27161;SDS011;54464;50.558;9.704;2022-10-16T08:09:05;4.10;;;3.70;;
27161;SDS011;54464;50.558;9.704;2022-10-16T08:11:32;3.97;;;3.63;;
27161;SDS011;54464;50.558;9.704;2022-10-16T08:13:58;4.23;;;3.60;;
27161;SDS011;54464;50.558;9.704;2022-10-16T08:16:23;4.07;;;3.77;;
27161;SDS011;54464;50.558;9.704;2022-10-16T08:18:49;4.60;;;4.03;;
27161;SDS011;54464;50.558;9.704;2022-10-16T08:21:18;5.03;;;4.37;;
27161;SDS011;54464;50.558;9.704;2022-10-16T08:23:46;5.40;;;4.93;;
27161;SDS011;54464;50.558;9.704;2022-10-16T08:26:11;6.90;;;5.77;;
27161;SDS011;54464;50.558;9.704;2022-10-16T08:28:37;5.67;;;5.17;;
27161;SDS011;54464;50.558;9.704;2022-10-16T08:33:32;5.93;;;5.43;;
27161;SDS011;54464;50.558;9.704;2022-10-16T08:35:59;6.03;;;5.43;;
27161;SDS011;54464;50.558;9.704;2022-10-16T08:38:25;7.23;;;5.47;;
27161;SDS011;54464;50.558;9.704;2022-10-16T08:40:51;5.80;;;5.27;;
27161;SDS011;54464;50.558;9.704;2022-10-16T08:43:41;5.43;;;4.93;;
27161;SDS011;54464;50.558;9.704;2022-10-16T08:48:53;6.67;;;6.17;;
27161;SDS011;54464;50.558;9.704;2022-10-16T08:51:24;6.23;;;5.73;;
27161;SDS011;54464;50.558;9.704;2022-10-16T08:53:58;6.90;;;6.40;;
27161;SDS011;54464;50.558;9.704;2022-10-16T08:56:29;6.97;;;6.30;;
27161;SDS011;54464;50.558;9.704;2022-10-16T08:58:57;8.13;;;7.33;;
27161;SDS011;54464;50.558;9.704;2022-10-16T09:01:24;6.23;;;5.70;;
27161;SDS011;54464;50.558;9.704;2022-10-16T09:12:57;7.17;;;6.47;;
27161;SDS011;54464;50.558;9.704;2022-10-16T09:15:40;6.10;;;5.50;;
27161;SDS011;54464;50.558;9.704;2022-10-16T09:18:16;7.57;;;5.73;;
27161;SDS011;54464;50.558;9.704;2022-10-16T09:23:39;6.93;;;5.73;;
27161;SDS011;54464;50.558;9.704;2022-10-16T09:26:05;5.73;;;5.20;;
27161;SDS011;54464;50.558;9.704;2022-10-16T09:28:36;5.97;;;5.40;;
27161;SDS011;54464;50.558;9.704;2022-10-16T09:31:02;4.97;;;4.57;;
27161;SDS011;54464;50.558;9.704;2022-10-16T09:33:33;6.13;;;5.60;;
27161;SDS011;54464;50.558;9.704;2022-10-16T09:36:02;5.93;;;5.43;;
27161;SDS011;54464;50.558;9.704;2022-10-16T09:41:00;14.00;;;11.73;;
27161;SDS011;54464;50.558;9.704;2022-10-16T09:46:07;6.63;;;5.80;;
27161;SDS011;54464;50.558;9.704;2022-10-16T09:48:46;7.57;;;6.80;;
27161;SDS011;54464;50.558;9.704;2022-10-16T09:51:24;10.50;;;9.60;;
27161;SDS011;54464;50.558;9.704;2022-10-16T09:53:59;7.70;;;7.10;;
27161;SDS011;54464;50.558;9.704;2022-10-16T09:56:27;6.27;;;5.67;;
27161;SDS011;54464;50.558;9.704;2022-10-16T09:59:02;5.83;;;5.30;;
27161;SDS011;54464;50.558;9.704;2022-10-16T10:01:36;7.60;;;6.80;;
27161;SDS011;54464;50.558;9.704;2022-10-16T10:04:03;5.10;;;4.70;;
27161;SDS011;54464;50.558;9.704;2022-10-16T10:12:04;5.70;;;5.30;;
27161;SDS011;54464;50.558;9.704;2022-10-16T10:14:38;7.30;;;6.60;;
27161;SDS011;54464;50.558;9.704;2022-10-16T10:19:40;7.00;;;6.50;;
27161;SDS011;54464;50.558;9.704;2022-10-16T10:22:44;7.17;;;6.60;;
27161;SDS011;54464;50.558;9.704;2022-10-16T10:27:42;5.83;;;5.33;;
27161;SDS011;54464;50.558;9.704;2022-10-16T10:30:37;5.13;;;4.67;;
27161;SDS011;54464;50.558;9.704;2022-10-16T10:33:20;4.43;;;4.03;;
27161;SDS011;54464;50.558;9.704;2022-10-16T10:41:34;2.80;;;2.60;;
27161;SDS011;54464;50.558;9.704;2022-10-16T10:45:27;3.20;;;3.00;;
27161;SDS011;54464;50.558;9.704;2022-10-16T10:47:47;3.40;;;3.20;;
27161;SDS011;54464;50.558;9.704;2022-10-16T10:50:25;4.40;;;4.10;;
27161;SDS011;54464;50.558;9.704;2022-10-16T10:53:32;4.37;;;3.97;;
27161;SDS011;54464;50.558;9.704;2022-10-16T10:59:07;5.87;;;5.43;;
27161;SDS011;54464;50.558;9.704;2022-10-16T11:01:56;6.60;;;6.00;;
27161;SDS011;54464;50.558;9.704;2022-10-16T11:12:41;8.83;;;7.93;;
27161;SDS011;54464;50.558;9.704;2022-10-16T11:15:13;7.97;;;7.27;;
27161;SDS011;54464;50.558;9.704;2022-10-16T11:17:44;8.60;;;7.63;;
27161;SDS011;54464;50.558;9.704;2022-10-16T11:20:32;9.27;;;8.47;;
27161;SDS011;54464;50.558;9.704;2022-10-16T11:23:06;9.40;;;8.60;;
27161;SDS011;54464;50.558;9.704;2022-10-16T11:25:49;9.23;;;8.43;;
27161;SDS011;54464;50.558;9.704;2022-10-16T11:28:19;9.50;;;8.70;;
27161;SDS011;54464;50.558;9.704;2022-10-16T11:30:56;9.83;;;8.93;;
27161;SDS011;54464;50.558;9.704;2022-10-16T11:33:42;10.00;;;9.20;;
27161;SDS011;54464;50.558;9.704;2022-10-16T11:36:38;9.37;;;8.57;;
27161;SDS011;54464;50.558;9.704;2022-10-16T11:39:13;8.47;;;7.77;;
27161;SDS011;54464;50.558;9.704;2022-10-16T11:41:50;6.67;;;6.17;;
27161;SDS011;54464;50.558;9.704;2022-10-16T11:47:12;4.87;;;4.47;;
27161;SDS011;54464;50.558;9.704;2022-10-16T11:50:04;5.60;;;5.17;;
27161;SDS011;54464;50.558;9.704;2022-10-16T11:53:02;5.97;;;5.47;;
27161;SDS011;54464;50.558;9.704;2022-10-16T11:55:58;6.23;;;5.63;;
27161;SDS011;54464;50.558;9.704;2022-10-16T11:58:29;6.00;;;5.50;;
27161;SDS011;54464;50.558;9.704;2022-10-16T12:08:51;5.77;;;5.37;;
27161;SDS011;54464;50.558;9.704;2022-10-16T12:14:03;5.50;;;5.10;;
27161;SDS011;54464;50.558;9.704;2022-10-16T12:16:32;5.20;;;4.70;;
27161;SDS011;54464;50.558;9.704;2022-10-16T12:21:40;5.63;;;5.20;;
27161;SDS011;54464;50.558;9.704;2022-10-16T12:24:18;6.23;;;5.73;;
27161;SDS011;54464;50.558;9.704;2022-10-16T12:26:47;7.00;;;6.17;;
27161;SDS011;54464;50.558;9.704;2022-10-16T12:35:04;5.50;;;5.10;;
27161;SDS011;54464;50.558;9.704;2022-10-16T12:37:42;6.33;;;5.83;;
27161;SDS011;54464;50.558;9.704;2022-10-16T12:42:57;6.20;;;5.60;;
27161;SDS011;54464;50.558;9.704;2022-10-16T12:47:56;5.60;;;5.20;;
27161;SDS011;54464;50.558;9.704;2022-10-16T12:50:28;5.97;;;5.43;;
27161;SDS011;54464;50.558;9.704;2022-10-16T12:53:16;6.63;;;6.00;;
27161;SDS011;54464;50.558;9.704;2022-10-16T12:55:50;6.63;;;6.03;;
27161;SDS011;54464;50.558;9.704;2022-10-16T12:58:39;5.53;;;5.13;;
27161;SDS011;54464;50.558;9.704;2022-10-16T13:06:35;6.50;;;6.10;;
27161;SDS011;54464;50.558;9.704;2022-10-16T13:09:33;4.27;;;3.93;;
27161;SDS011;54464;50.558;9.704;2022-10-16T13:12:24;3.63;;;3.43;;
27161;SDS011;54464;50.558;9.704;2022-10-16T13:20:49;4.03;;;3.73;;
27161;SDS011;54464;50.558;9.704;2022-10-16T13:23:25;4.07;;;3.80;;
27161;SDS011;54464;50.558;9.704;2022-10-16T13:29:00;3.53;;;3.33;;
27161;SDS011;54464;50.558;9.704;2022-10-16T13:31:26;3.90;;;3.60;;
27161;SDS011;54464;50.558;9.704;2022-10-16T13:33:54;4.07;;;3.77;;
27161;SDS011;54464;50.558;9.704;2022-10-16T13:36:34;4.60;;;4.20;;
27161;SDS011;54464;50.558;9.704;2022-10-16T13:42:02;3.87;;;3.57;;
27161;SDS011;54464;50.558;9.704;2022-10-16T13:44:52;4.73;;;4.33;;
27161;SDS011;54464;50.558;9.704;2022-10-16T13:47:21;4.40;;;4.00;;
27161;SDS011;54464;50.558;9.704;2022-10-16T13:50:11;4.03;;;3.63;;
27161;SDS011;54464;50.558;9.704;2022-10-16T13:52:37;3.87;;;3.60;;
27161;SDS011;54464;50.558;9.704;2022-10-16T13:55:04;4.30;;;4.00;;
27161;SDS011;54464;50.558;9.704;2022-10-16T13:57:35;3.80;;;3.50;;
27161;SDS011;54464;50.558;9.704;2022-10-16T14:00:01;4.27;;;3.97;;
27161;SDS011;54464;50.558;9.704;2022-10-16T14:04:56;4.70;;;4.40;;
27161;SDS011;54464;50.558;9.704;2022-10-16T14:07:26;5.20;;;4.50;;
27161;SDS011;54464;50.558;9.704;2022-10-16T14:09:56;4.10;;;3.83;;
27161;SDS011;54464;50.558;9.704;2022-10-16T14:12:28;4.97;;;4.57;;
27161;SDS011;54464;50.558;9.704;2022-10-16T14:14:54;5.00;;;4.60;;
27161;SDS011;54464;50.558;9.704;2022-10-16T14:17:22;5.43;;;4.40;;
27161;SDS011;54464;50.558;9.704;2022-10-16T14:19:51;4.90;;;4.50;;
27161;SDS011;54464;50.558;9.704;2022-10-16T14:22:38;3.80;;;3.50;;
27161;SDS011;54464;50.558;9.704;2022-10-16T14:28:15;2.80;;;2.60;;
27161;SDS011;54464;50.558;9.704;2022-10-16T14:30:49;4.00;;;1.90;;
27161;SDS011;54464;50.558;9.704;2022-10-16T14:33:22;2.10;;;1.90;;
27161;SDS011;54464;50.558;9.704;2022-10-16T14:38:27;3.13;;;2.30;;
27161;SDS011;54464;50.558;9.704;2022-10-16T14:40:54;2.80;;;2.53;;
27161;SDS011;54464;50.558;9.704;2022-10-16T14:46:01;2.70;;;2.30;;
27161;SDS011;54464;50.558;9.704;2022-10-16T14:48:39;2.00;;;1.90;;
27161;SDS011;54464;50.558;9.704;2022-10-16T14:51:08;1.90;;;1.80;;
27161;SDS011;54464;50.558;9.704;2022-10-16T14:53:39;1.80;;;1.70;;
27161;SDS011;54464;50.558;9.704;2022-10-16T14:56:08;3.97;;;1.87;;
27161;SDS011;54464;50.558;9.704;2022-10-16T14:58:39;2.17;;;1.77;;
27161;SDS011;54464;50.558;9.704;2022-10-16T15:01:05;2.13;;;1.93;;
27161;SDS011;54464;50.558;9.704;2022-10-16T15:03:31;3.27;;;1.90;;
27161;SDS011;54464;50.558;9.704;2022-10-16T15:05:57;2.80;;;2.00;;
27161;SDS011;54464;50.558;9.704;2022-10-16T15:08:23;3.30;;;2.20;;
27161;SDS011;54464;50.558;9.704;2022-10-16T15:10:48;2.93;;;2.50;;
27161;SDS011;54464;50.558;9.704;2022-10-16T15:13:14;2.60;;;1.93;;
27161;SDS011;54464;50.558;9.704;2022-10-16T15:15:41;2.43;;;2.10;;
27161;SDS011;54464;50.558;9.704;2022-10-16T15:18:09;2.73;;;2.17;;
27161;SDS011;54464;50.558;9.704;2022-10-16T15:20:36;2.50;;;2.30;;
27161;SDS011;54464;50.558;9.704;2022-10-16T15:23:04;3.07;;;2.37;;
27161;SDS011;54464;50.558;9.704;2022-10-16T15:28:08;2.60;;;2.40;;
27161;SDS011;54464;50.558;9.704;2022-10-16T15:30:35;2.47;;;2.27;;
27161;SDS011;54464;50.558;9.704;2022-10-16T15:33:02;2.70;;;2.27;;
27161;SDS011;54464;50.558;9.704;2022-10-16T15:35:28;4.67;;;2.50;;
27161;SDS011;54464;50.558;9.704;2022-10-16T15:37:54;2.90;;;2.40;;
27161;SDS011;54464;50.558;9.704;2022-10-16T15:40:20;3.47;;;2.67;;
27161;SDS011;54464;50.558;9.704;2022-10-16T15:42:46;5.77;;;5.23;;
27161;SDS011;54464;50.558;9.704;2022-10-16T15:45:12;4.20;;;3.90;;
27161;SDS011;54464;50.558;9.704;2022-10-16T15:47:39;3.20;;;2.90;;
27161;SDS011;54464;50.558;9.704;2022-10-16T15:50:06;3.23;;;2.63;;
27161;SDS011;54464;50.558;9.704;2022-10-16T15:52:34;3.13;;;2.93;;
27161;SDS011;54464;50.558;9.704;2022-10-16T15:54:59;4.80;;;4.40;;
27161;SDS011;54464;50.558;9.704;2022-10-16T15:57:27;3.67;;;3.37;;
27161;SDS011;54464;50.558;9.704;2022-10-16T15:59:54;3.00;;;2.60;;
27161;SDS011;54464;50.558;9.704;2022-10-16T16:02:20;3.40;;;3.10;;
27161;SDS011;54464;50.558;9.704;2022-10-16T16:04:45;4.07;;;3.03;;
27161;SDS011;54464;50.558;9.704;2022-10-16T16:07:11;3.10;;;2.80;;
27161;SDS011;54464;50.558;9.704;2022-10-16T16:09:37;4.13;;;2.80;;
27161;SDS011;54464;50.558;9.704;2022-10-16T16:12:03;3.30;;;2.60;;
27161;SDS011;54464;50.558;9.704;2022-10-16T16:14:28;3.53;;;3.13;;
27161;SDS011;54464;50.558;9.704;2022-10-16T16:16:54;3.20;;;2.50;;
27161;SDS011;54464;50.558;9.704;2022-10-16T16:19:20;2.60;;;2.40;;
27161;SDS011;54464;50.558;9.704;2022-10-16T16:21:47;4.63;;;2.60;;
27161;SDS011;54464;50.558;9.704;2022-10-16T16:24:13;3.67;;;2.57;;
27161;SDS011;54464;50.558;9.704;2022-10-16T16:26:38;4.13;;;3.03;;
27161;SDS011;54464;50.558;9.704;2022-10-16T16:29:08;3.30;;;3.10;;
27161;SDS011;54464;50.558;9.704;2022-10-16T16:31:37;11.17;;;10.23;;
27161;SDS011;54464;50.558;9.704;2022-10-16T16:34:03;5.97;;;5.47;;
27161;SDS011;54464;50.558;9.704;2022-10-16T16:36:30;4.83;;;4.40;;
27161;SDS011;54464;50.558;9.704;2022-10-16T16:38:56;5.10;;;3.87;;
27161;SDS011;54464;50.558;9.704;2022-10-16T16:41:23;3.67;;;3.37;;
27161;SDS011;54464;50.558;9.704;2022-10-16T16:43:50;4.30;;;3.90;;
27161;SDS011;54464;50.558;9.704;2022-10-16T16:46:18;4.33;;;3.93;;
27161;SDS011;54464;50.558;9.704;2022-10-16T16:48:47;4.50;;;4.20;;
27161;SDS011;54464;50.558;9.704;2022-10-16T16:51:16;6.00;;;5.50;;
27161;SDS011;54464;50.558;9.704;2022-10-16T16:53:46;5.70;;;5.23;;
27161;SDS011;54464;50.558;9.704;2022-10-16T16:56:13;5.70;;;5.10;;
27161;SDS011;54464;50.558;9.704;2022-10-16T16:58:39;6.00;;;5.40;;
27161;SDS011;54464;50.558;9.704;2022-10-16T17:01:05;6.23;;;4.87;;
27161;SDS011;54464;50.558;9.704;2022-10-16T17:03:34;5.73;;;4.57;;
27161;SDS011;54464;50.558;9.704;2022-10-16T17:06:04;4.63;;;4.17;;
27161;SDS011;54464;50.558;9.704;2022-10-16T17:08:31;4.10;;;3.70;;
27161;SDS011;54464;50.558;9.704;2022-10-16T17:10:57;3.90;;;3.50;;
27161;SDS011;54464;50.558;9.704;2022-10-16T17:13:24;4.83;;;3.57;;
27161;SDS011;54464;50.558;9.704;2022-10-16T17:15:51;4.20;;;3.70;;
27161;SDS011;54464;50.558;9.704;2022-10-16T17:18:18;4.03;;;3.73;;
27161;SDS011;54464;50.558;9.704;2022-10-16T17:20:44;4.10;;;3.70;;